sensor_id;sensor_type;location;lat;lon;timestamp;pressure;altitude;pressure_sealevel;temperature;humidity
22241;BME280;11289;52.524;13.694;2022-08-30T00:01:31;101490.19;;;15.95;74.82
22241;BME280;11289;52.524;13.694;2022-08-30T00:03:57;101491.69;;;15.93;75.10
22241;BME280;11289;52.524;13.694;2022-08-30T00:06:25;101484.34;;;15.88;74.60
22241;BME280;11289;52.524;13.694;2022-08-30T00:08:51;101486.53;;;15.82;74.55
22241;BME280;11289;52.524;13.694;2022-08-30T00:11:21;101485.72;;;15.82;74.46
22241;BME280;11289;52.524;13.694;2022-08-30T00:13:48;101490.50;;;15.81;74.14
22241;BME280;11289;52.524;13.694;2022-08-30T00:16:15;101479.34;;;15.73;74.03
22241;BME280;11289;52.524;13.694;2022-08-30T00:18:41;101491.03;;;15.75;74.33
22241;BME280;11289;52.524;13.694;2022-08-30T00:21:08;101482.72;;;15.66;74.41
22241;BME280;11289;52.524;13.694;2022-08-30T00:23:34;101481.09;;;15.65;75.15
22241;BME280;11289;52.524;13.694;2022-08-30T00:25:59;101481.78;;;15.62;74.99
22241;BME280;11289;52.524;13.694;2022-08-30T00:28:27;101495.06;;;15.65;74.76
22241;BME280;11289;52.524;13.694;2022-08-30T00:30:53;101499.03;;;15.64;74.75
22241;BME280;11289;52.524;13.694;2022-08-30T00:33:18;101493.66;;;15.59;74.74
22241;BME280;11289;52.524;13.694;2022-08-30T00:35:44;101500.41;;;15.58;74.79
22241;BME280;11289;52.524;13.694;2022-08-30T00:38:11;101502.25;;;15.54;74.37
22241;BME280;11289;52.524;13.694;2022-08-30T00:40:37;101505.91;;;15.54;74.31
22241;BME280;11289;52.524;13.694;2022-08-30T00:43:10;101509.03;;;15.53;74.25
22241;BME280;11289;52.524;13.694;2022-08-30T00:45:37;101502.94;;;15.50;74.32
22241;BME280;11289;52.524;13.694;2022-08-30T00:48:04;101504.31;;;15.44;74.42
22241;BME280;11289;52.524;13.694;2022-08-30T00:50:34;101508.63;;;15.42;74.43
22241;BME280;11289;52.524;13.694;2022-08-30T00:53:05;101508.97;;;15.40;74.34
22241;BME280;11289;52.524;13.694;2022-08-30T00:55:31;101500.91;;;15.39;74.37
22241;BME280;11289;52.524;13.694;2022-08-30T00:57:59;101498.00;;;15.35;74.15
22241;BME280;11289;52.524;13.694;2022-08-30T01:00:26;101501.44;;;15.32;74.29
22241;BME280;11289;52.524;13.694;2022-08-30T01:02:52;101489.19;;;15.24;74.86
22241;BME280;11289;52.524;13.694;2022-08-30T01:05:18;101493.28;;;15.27;75.63
22241;BME280;11289;52.524;13.694;2022-08-30T01:07:44;101491.53;;;15.22;74.93
22241;BME280;11289;52.524;13.694;2022-08-30T01:10:11;101487.75;;;15.18;74.76
22241;BME280;11289;52.524;13.694;2022-08-30T01:12:38;101495.34;;;15.18;74.65
22241;BME280;11289;52.524;13.694;2022-08-30T01:15:05;101504.19;;;15.20;74.44
22241;BME280;11289;52.524;13.694;2022-08-30T01:17:30;101504.88;;;15.17;74.78
22241;BME280;11289;52.524;13.694;2022-08-30T01:20:08;101482.78;;;15.03;74.95
22241;BME280;11289;52.524;13.694;2022-08-30T01:25:24;101503.59;;;15.14;74.70
22241;BME280;11289;52.524;13.694;2022-08-30T01:27:55;101507.88;;;15.11;74.58
22241;BME280;11289;52.524;13.694;2022-08-30T01:30:23;101509.72;;;15.07;74.56
22241;BME280;11289;52.524;13.694;2022-08-30T01:32:51;101507.75;;;15.08;74.45
22241;BME280;11289;52.524;13.694;2022-08-30T01:35:20;101504.19;;;14.98;74.49
22241;BME280;11289;52.524;13.694;2022-08-30T01:37:46;101504.50;;;14.97;74.54
22241;BME280;11289;52.524;13.694;2022-08-30T01:40:15;101512.56;;;14.98;74.44
22241;BME280;11289;52.524;13.694;2022-08-30T01:42:41;101509.63;;;14.95;74.94
22241;BME280;11289;52.524;13.694;2022-08-30T01:45:07;101501.44;;;14.90;74.68
22241;BME280;11289;52.524;13.694;2022-08-30T01:47:33;101513.13;;;14.92;74.60
22241;BME280;11289;52.524;13.694;2022-08-30T01:49:59;101509.34;;;14.88;74.56
22241;BME280;11289;52.524;13.694;2022-08-30T01:52:24;101510.16;;;14.88;75.03
22241;BME280;11289;52.524;13.694;2022-08-30T01:54:50;101510.03;;;14.85;75.12
22241;BME280;11289;52.524;13.694;2022-08-30T01:57:18;101515.28;;;14.86;74.87
22241;BME280;11289;52.524;13.694;2022-08-30T01:59:45;101516.44;;;14.85;74.76
22241;BME280;11289;52.524;13.694;2022-08-30T02:02:13;101511.19;;;14.84;74.77
22241;BME280;11289;52.524;13.694;2022-08-30T02:04:39;101501.84;;;14.79;74.69
22241;BME280;11289;52.524;13.694;2022-08-30T02:07:04;101504.16;;;14.77;74.92
22241;BME280;11289;52.524;13.694;2022-08-30T02:09:30;101504.16;;;14.77;75.15
22241;BME280;11289;52.524;13.694;2022-08-30T02:11:55;101505.31;;;14.76;75.36
22241;BME280;11289;52.524;13.694;2022-08-30T02:14:21;101503.19;;;14.73;75.13
22241;BME280;11289;52.524;13.694;2022-08-30T02:16:47;101506.31;;;14.72;75.22
22241;BME280;11289;52.524;13.694;2022-08-30T02:19:12;101500.28;;;14.70;75.59
22241;BME280;11289;52.524;13.694;2022-08-30T02:21:38;101485.81;;;14.59;75.94
22241;BME280;11289;52.524;13.694;2022-08-30T02:24:03;101491.25;;;14.64;76.13
22241;BME280;11289;52.524;13.694;2022-08-30T02:26:29;101495.00;;;14.59;76.25
22241;BME280;11289;52.524;13.694;2022-08-30T02:28:54;101490.09;;;14.56;75.69
22241;BME280;11289;52.524;13.694;2022-08-30T02:31:20;101495.34;;;14.58;75.70
22241;BME280;11289;52.524;13.694;2022-08-30T02:33:47;101501.44;;;14.60;75.65
22241;BME280;11289;52.524;13.694;2022-08-30T02:36:13;101492.09;;;14.56;75.43
22241;BME280;11289;52.524;13.694;2022-08-30T02:38:38;101488.66;;;14.50;75.52
22241;BME280;11289;52.524;13.694;2022-08-30T02:41:04;101496.03;;;14.55;75.58
22241;BME280;11289;52.524;13.694;2022-08-30T02:43:30;101500.81;;;14.54;75.76
22241;BME280;11289;52.524;13.694;2022-08-30T02:45:55;101499.50;;;14.52;75.63
22241;BME280;11289;52.524;13.694;2022-08-30T02:48:20;101494.59;;;14.49;75.60
22241;BME280;11289;52.524;13.694;2022-08-30T02:50:50;101480.78;;;14.43;75.54
22241;BME280;11289;52.524;13.694;2022-08-30T02:53:16;101497.84;;;14.51;75.92
22241;BME280;11289;52.524;13.694;2022-08-30T02:55:42;101496.22;;;14.50;76.45
22241;BME280;11289;52.524;13.694;2022-08-30T02:58:08;101495.25;;;14.45;76.50
22241;BME280;11289;52.524;13.694;2022-08-30T03:00:35;101495.25;;;14.45;76.44
22241;BME280;11289;52.524;13.694;2022-08-30T03:03:01;101494.75;;;14.43;76.34
22241;BME280;11289;52.524;13.694;2022-08-30T03:05:28;101492.34;;;14.33;75.77
22241;BME280;11289;52.524;13.694;2022-08-30T03:07:54;101495.78;;;14.39;75.90
22241;BME280;11289;52.524;13.694;2022-08-30T03:10:20;101496.28;;;14.41;75.85
22241;BME280;11289;52.524;13.694;2022-08-30T03:12:46;101497.75;;;14.38;76.13
22241;BME280;11289;52.524;13.694;2022-08-30T03:15:12;101500.56;;;14.38;75.99
22241;BME280;11289;52.524;13.694;2022-08-30T03:17:38;101500.72;;;14.33;76.06
22241;BME280;11289;52.524;13.694;2022-08-30T03:20:05;101498.44;;;14.35;76.22
22241;BME280;11289;52.524;13.694;2022-08-30T03:22:31;101497.47;;;14.31;76.24
22241;BME280;11289;52.524;13.694;2022-08-30T03:24:57;101501.91;;;14.32;76.62
22241;BME280;11289;52.524;13.694;2022-08-30T03:27:24;101494.78;;;14.35;76.44
22241;BME280;11289;52.524;13.694;2022-08-30T03:29:50;101499.56;;;14.34;76.56
22241;BME280;11289;52.524;13.694;2022-08-30T03:32:16;101470.56;;;14.18;77.01
22241;BME280;11289;52.524;13.694;2022-08-30T03:34:41;101493.34;;;14.28;77.14
22241;BME280;11289;52.524;13.694;2022-08-30T03:37:07;101502.72;;;14.33;77.42
22241;BME280;11289;52.524;13.694;2022-08-30T03:39:32;101505.50;;;14.33;77.73
22241;BME280;11289;52.524;13.694;2022-08-30T03:41:58;101492.88;;;14.26;77.67
22241;BME280;11289;52.524;13.694;2022-08-30T03:44:23;101503.03;;;14.31;78.37
22241;BME280;11289;52.524;13.694;2022-08-30T03:46:49;101511.09;;;14.33;78.00
22241;BME280;11289;52.524;13.694;2022-08-30T03:49:15;101495.50;;;14.23;77.69
22241;BME280;11289;52.524;13.694;2022-08-30T03:51:40;101482.25;;;14.11;77.62
22241;BME280;11289;52.524;13.694;2022-08-30T03:54:06;101506.53;;;14.19;77.30
22241;BME280;11289;52.524;13.694;2022-08-30T03:56:31;101503.09;;;14.14;77.65
22241;BME280;11289;52.524;13.694;2022-08-30T03:58:57;101523.78;;;14.21;77.72
22241;BME280;11289;52.524;13.694;2022-08-30T04:01:22;101525.25;;;14.19;77.72
22241;BME280;11289;52.524;13.694;2022-08-30T04:03:48;101524.31;;;14.15;77.72
22241;BME280;11289;52.524;13.694;2022-08-30T04:06:14;101528.72;;;14.16;78.77
22241;BME280;11289;52.524;13.694;2022-08-30T04:08:39;101509.84;;;14.13;78.80
22241;BME280;11289;52.524;13.694;2022-08-30T04:11:05;101518.84;;;14.18;78.97
22241;BME280;11289;52.524;13.694;2022-08-30T04:13:31;101519.34;;;14.20;79.55
22241;BME280;11289;52.524;13.694;2022-08-30T04:15:58;101525.25;;;14.27;79.68
22241;BME280;11289;52.524;13.694;2022-08-30T04:18:24;101529.31;;;14.30;79.65
22241;BME280;11289;52.524;13.694;2022-08-30T04:20:50;101528.81;;;14.37;79.61
22241;BME280;11289;52.524;13.694;2022-08-30T04:23:16;101530.81;;;14.36;79.71
22241;BME280;11289;52.524;13.694;2022-08-30T04:25:41;101536.66;;;14.43;79.85
22241;BME280;11289;52.524;13.694;2022-08-30T04:28:07;101537.16;;;14.45;79.93
22241;BME280;11289;52.524;13.694;2022-08-30T04:30:33;101526.31;;;14.44;80.37
22241;BME280;11289;52.524;13.694;2022-08-30T04:32:59;101535.00;;;14.51;80.53
22241;BME280;11289;52.524;13.694;2022-08-30T04:35:25;101537.63;;;14.48;80.77
22241;BME280;11289;52.524;13.694;2022-08-30T04:37:50;101537.13;;;14.54;80.74
22241;BME280;11289;52.524;13.694;2022-08-30T04:40:16;101549.28;;;14.58;80.84
22241;BME280;11289;52.524;13.694;2022-08-30T04:42:42;101540.91;;;14.58;81.19
22241;BME280;11289;52.524;13.694;2022-08-30T04:45:14;101539.22;;;14.66;81.22
22241;BME280;11289;52.524;13.694;2022-08-30T04:47:41;101526.41;;;14.65;80.81
22241;BME280;11289;52.524;13.694;2022-08-30T04:50:09;101538.38;;;14.74;81.06
22241;BME280;11289;52.524;13.694;2022-08-30T04:52:35;101535.72;;;14.78;80.92
22241;BME280;11289;52.524;13.694;2022-08-30T04:55:01;101534.69;;;14.83;80.78
22241;BME280;11289;52.524;13.694;2022-08-30T04:57:27;101534.84;;;14.86;80.81
22241;BME280;11289;52.524;13.694;2022-08-30T04:59:53;101538.97;;;14.89;80.95
22241;BME280;11289;52.524;13.694;2022-08-30T05:02:19;101540.41;;;14.95;81.09
22241;BME280;11289;52.524;13.694;2022-08-30T05:04:44;101535.28;;;14.97;81.06
22241;BME280;11289;52.524;13.694;2022-08-30T05:07:30;101545.25;;;15.07;81.59
22241;BME280;11289;52.524;13.694;2022-08-30T05:09:56;101534.88;;;15.07;81.54
22241;BME280;11289;52.524;13.694;2022-08-30T05:12:22;101541.25;;;15.17;81.55
22241;BME280;11289;52.524;13.694;2022-08-30T05:14:48;101546.97;;;15.20;81.59
22241;BME280;11289;52.524;13.694;2022-08-30T05:17:13;101546.97;;;15.20;81.40
22241;BME280;11289;52.524;13.694;2022-08-30T05:19:39;101557.97;;;15.25;81.61
22241;BME280;11289;52.524;13.694;2022-08-30T05:22:04;101538.22;;;15.22;81.24
22241;BME280;11289;52.524;13.694;2022-08-30T05:24:29;101556.41;;;15.37;81.25
22241;BME280;11289;52.524;13.694;2022-08-30T05:26:57;101560.28;;;15.44;81.16
22241;BME280;11289;52.524;13.694;2022-08-30T05:29:22;101550.25;;;15.43;81.91
22241;BME280;11289;52.524;13.694;2022-08-30T05:31:48;101569.75;;;15.52;81.34
22241;BME280;11289;52.524;13.694;2022-08-30T05:34:13;101561.97;;;15.58;81.28
22241;BME280;11289;52.524;13.694;2022-08-30T05:36:39;101566.56;;;15.62;81.50
22241;BME280;11289;52.524;13.694;2022-08-30T05:39:08;101534.66;;;15.42;82.53
22241;BME280;11289;52.524;13.694;2022-08-30T05:41:35;101568.72;;;15.57;84.01
22241;BME280;11289;52.524;13.694;2022-08-30T05:44:01;101567.81;;;15.53;84.81
22241;BME280;11289;52.524;13.694;2022-08-30T05:46:29;101574.13;;;15.62;84.35
22241;BME280;11289;52.524;13.694;2022-08-30T05:48:58;101554.69;;;15.65;85.01
22241;BME280;11289;52.524;13.694;2022-08-30T05:51:25;101564.97;;;15.74;84.68
22241;BME280;11289;52.524;13.694;2022-08-30T05:53:53;101570.88;;;15.81;84.70
22241;BME280;11289;52.524;13.694;2022-08-30T05:56:26;101563.09;;;15.87;84.72
22241;BME280;11289;52.524;13.694;2022-08-30T05:58:53;101564.03;;;15.91;84.04
22241;BME280;11289;52.524;13.694;2022-08-30T06:01:28;101573.75;;;16.06;83.65
22241;BME280;11289;52.524;13.694;2022-08-30T06:03:55;101574.03;;;16.13;84.13
22241;BME280;11289;52.524;13.694;2022-08-30T06:06:21;101576.81;;;16.13;84.93
22241;BME280;11289;52.524;13.694;2022-08-30T06:08:47;101579.06;;;16.19;85.00
22241;BME280;11289;52.524;13.694;2022-08-30T06:11:15;101587.97;;;16.34;85.18
22241;BME280;11289;52.524;13.694;2022-08-30T06:13:42;101590.44;;;16.48;84.35
22241;BME280;11289;52.524;13.694;2022-08-30T06:16:10;101581.94;;;16.57;84.23
22241;BME280;11289;52.524;13.694;2022-08-30T06:18:35;101582.31;;;16.67;84.12
22241;BME280;11289;52.524;13.694;2022-08-30T06:21:01;101574.47;;;16.73;83.82
22241;BME280;11289;52.524;13.694;2022-08-30T06:23:27;101566.53;;;16.63;84.07
22241;BME280;11289;52.524;13.694;2022-08-30T06:25:53;101584.75;;;16.69;84.43
22241;BME280;11289;52.524;13.694;2022-08-30T06:28:18;101574.25;;;16.66;85.08
22241;BME280;11289;52.524;13.694;2022-08-30T06:30:44;101566.63;;;16.66;84.40
22241;BME280;11289;52.524;13.694;2022-08-30T06:33:09;101577.28;;;16.85;85.10
22241;BME280;11289;52.524;13.694;2022-08-30T06:35:36;101581.03;;;17.02;84.81
22241;BME280;11289;52.524;13.694;2022-08-30T06:38:01;101590.47;;;17.22;84.28
22241;BME280;11289;52.524;13.694;2022-08-30T06:40:27;101586.16;;;17.37;84.86
22241;BME280;11289;52.524;13.694;2022-08-30T06:42:52;101581.44;;;17.41;84.09
22241;BME280;11289;52.524;13.694;2022-08-30T06:45:19;101590.56;;;17.50;83.39
22241;BME280;11289;52.524;13.694;2022-08-30T06:47:45;101591.69;;;17.62;83.13
22241;BME280;11289;52.524;13.694;2022-08-30T06:50:11;101593.53;;;17.70;81.79
22241;BME280;11289;52.524;13.694;2022-08-30T06:52:42;101598.06;;;17.74;82.31
22241;BME280;11289;52.524;13.694;2022-08-30T06:55:10;101595.59;;;17.85;82.24
22241;BME280;11289;52.524;13.694;2022-08-30T06:57:35;101604.97;;;17.77;81.11
22241;BME280;11289;52.524;13.694;2022-08-30T07:00:01;101606.50;;;17.74;82.50
22241;BME280;11289;52.524;13.694;2022-08-30T07:02:26;101602.53;;;17.75;80.80
22241;BME280;11289;52.524;13.694;2022-08-30T07:04:52;101602.78;;;17.70;80.99
22241;BME280;11289;52.524;13.694;2022-08-30T07:07:18;101610.38;;;17.70;80.56
22241;BME280;11289;52.524;13.694;2022-08-30T07:09:43;101609.09;;;17.67;81.44
22241;BME280;11289;52.524;13.694;2022-08-30T07:12:10;101606.25;;;17.80;81.63
22241;BME280;11289;52.524;13.694;2022-08-30T07:14:36;101599.13;;;17.82;80.83
22241;BME280;11289;52.524;13.694;2022-08-30T07:17:02;101602.53;;;17.75;81.19
22241;BME280;11289;52.524;13.694;2022-08-30T07:19:48;101609.28;;;17.87;81.65
22241;BME280;11289;52.524;13.694;2022-08-30T07:22:13;101583.06;;;17.83;80.68
22241;BME280;11289;52.524;13.694;2022-08-30T07:24:39;101609.34;;;18.03;79.19
22241;BME280;11289;52.524;13.694;2022-08-30T07:27:05;101600.47;;;18.01;79.85
22241;BME280;11289;52.524;13.694;2022-08-30T07:29:30;101620.00;;;18.09;79.59
22241;BME280;11289;52.524;13.694;2022-08-30T07:31:55;101615.38;;;18.17;78.63
22241;BME280;11289;52.524;13.694;2022-08-30T07:34:21;101606.94;;;18.17;79.15
22241;BME280;11289;52.524;13.694;2022-08-30T07:36:46;101609.22;;;18.27;79.20
22241;BME280;11289;52.524;13.694;2022-08-30T07:39:11;101615.69;;;18.44;78.02
22241;BME280;11289;52.524;13.694;2022-08-30T07:41:37;101622.88;;;18.57;77.22
22241;BME280;11289;52.524;13.694;2022-08-30T07:44:03;101629.31;;;18.74;76.96
22241;BME280;11289;52.524;13.694;2022-08-30T07:46:28;101616.63;;;18.80;76.79
22241;BME280;11289;52.524;13.694;2022-08-30T07:48:54;101625.72;;;18.89;75.33
22241;BME280;11289;52.524;13.694;2022-08-30T07:51:23;101625.63;;;19.02;75.11
22241;BME280;11289;52.524;13.694;2022-08-30T07:53:48;101625.69;;;19.05;73.40
22241;BME280;11289;52.524;13.694;2022-08-30T07:56:14;101629.59;;;19.17;73.85
22241;BME280;11289;52.524;13.694;2022-08-30T07:58:40;101631.38;;;19.41;73.40
22241;BME280;11289;52.524;13.694;2022-08-30T08:01:07;101628.56;;;19.41;70.82
22241;BME280;11289;52.524;13.694;2022-08-30T08:03:33;101632.06;;;19.54;71.48
22241;BME280;11289;52.524;13.694;2022-08-30T08:06:01;101633.56;;;19.67;70.32
22241;BME280;11289;52.524;13.694;2022-08-30T08:08:27;101627.03;;;19.63;70.25
22241;BME280;11289;52.524;13.694;2022-08-30T08:10:52;101634.09;;;19.73;70.30
22241;BME280;11289;52.524;13.694;2022-08-30T08:13:17;101629.34;;;19.77;69.21
22241;BME280;11289;52.524;13.694;2022-08-30T08:15:43;101638.00;;;19.68;68.86
22241;BME280;11289;52.524;13.694;2022-08-30T08:18:08;101639.34;;;19.74;69.99
22241;BME280;11289;52.524;13.694;2022-08-30T08:20:34;101642.22;;;19.78;68.44
22241;BME280;11289;52.524;13.694;2022-08-30T08:22:59;101631.06;;;19.81;68.09
22241;BME280;11289;52.524;13.694;2022-08-30T08:25:25;101635.97;;;19.85;68.32
22241;BME280;11289;52.524;13.694;2022-08-30T08:27:51;101645.03;;;19.78;66.67
22241;BME280;11289;52.524;13.694;2022-08-30T08:30:22;101645.41;;;19.76;68.30
22241;BME280;11289;52.524;13.694;2022-08-30T08:32:48;101653.84;;;19.92;68.85
22241;BME280;11289;52.524;13.694;2022-08-30T08:35:15;101637.81;;;19.96;68.50
22241;BME280;11289;52.524;13.694;2022-08-30T08:37:41;101642.81;;;20.03;68.58
22241;BME280;11289;52.524;13.694;2022-08-30T08:40:09;101640.50;;;19.89;68.36
22241;BME280;11289;52.524;13.694;2022-08-30T08:42:57;101645.69;;;19.87;68.52
22241;BME280;11289;52.524;13.694;2022-08-30T08:50:57;101645.81;;;20.33;66.81
22241;BME280;11289;52.524;13.694;2022-08-30T08:53:46;101646.38;;;20.43;65.94
22241;BME280;11289;52.524;13.694;2022-08-30T08:56:16;101653.59;;;20.40;66.52
22241;BME280;11289;52.524;13.694;2022-08-30T08:58:56;101642.13;;;20.52;66.01
22241;BME280;11289;52.524;13.694;2022-08-30T09:01:25;101651.31;;;20.69;65.21
22241;BME280;11289;52.524;13.694;2022-08-30T09:03:52;101650.13;;;20.93;64.78
22241;BME280;11289;52.524;13.694;2022-08-30T09:09:35;101648.31;;;21.04;61.84
22241;BME280;11289;52.524;13.694;2022-08-30T09:12:01;101652.56;;;20.95;62.29
22241;BME280;11289;52.524;13.694;2022-08-30T09:14:32;101651.03;;;20.97;62.90
22241;BME280;11289;52.524;13.694;2022-08-30T09:17:02;101655.81;;;20.97;62.68
22241;BME280;11289;52.524;13.694;2022-08-30T09:22:34;101662.09;;;20.86;63.99
22241;BME280;11289;52.524;13.694;2022-08-30T09:25:48;101657.56;;;20.78;63.78
22241;BME280;11289;52.524;13.694;2022-08-30T09:27:52;101668.09;;;20.81;64.63
22241;BME280;11289;52.524;13.694;2022-08-30T09:30:25;101662.81;;;20.80;64.80
22241;BME280;11289;52.524;13.694;2022-08-30T09:32:54;101661.59;;;20.81;63.31
22241;BME280;11289;52.524;13.694;2022-08-30T09:35:41;101666.94;;;20.86;63.88
22241;BME280;11289;52.524;13.694;2022-08-30T09:43:20;101662.78;;;21.26;60.87
22241;BME280;11289;52.524;13.694;2022-08-30T09:45:49;101663.81;;;21.41;58.52
22241;BME280;11289;52.524;13.694;2022-08-30T09:48:29;101669.69;;;21.55;58.39
22241;BME280;11289;52.524;13.694;2022-08-30T09:53:58;101661.91;;;21.76;57.54
22241;BME280;11289;52.524;13.694;2022-08-30T09:56:41;101670.13;;;21.88;57.40
22241;BME280;11289;52.524;13.694;2022-08-30T10:07:43;101661.25;;;21.59;56.20
22241;BME280;11289;52.524;13.694;2022-08-30T10:23:11;101652.03;;;23.68;51.45
22241;BME280;11289;52.524;13.694;2022-08-30T10:29:09;101654.75;;;24.42;49.04
22241;BME280;11289;52.524;13.694;2022-08-30T10:31:45;101647.94;;;24.72;46.52
22241;BME280;11289;52.524;13.694;2022-08-30T10:35:00;101640.25;;;24.87;47.11
22241;BME280;11289;52.524;13.694;2022-08-30T10:37:04;101644.69;;;25.24;46.75
22241;BME280;11289;52.524;13.694;2022-08-30T10:39:38;101636.97;;;25.49;45.46
22241;BME280;11289;52.524;13.694;2022-08-30T10:42:14;101634.56;;;25.33;46.23
22241;BME280;11289;52.524;13.694;2022-08-30T10:44:45;101639.41;;;25.26;45.01
22241;BME280;11289;52.524;13.694;2022-08-30T10:49:56;101639.34;;;25.65;44.57
22241;BME280;11289;52.524;13.694;2022-08-30T10:52:43;101632.84;;;25.65;43.83
22241;BME280;11289;52.524;13.694;2022-08-30T10:55:27;101631.72;;;24.79;43.79
22241;BME280;11289;52.524;13.694;2022-08-30T10:58:01;101633.28;;;24.44;44.00
22241;BME280;11289;52.524;13.694;2022-08-30T11:03:59;101636.09;;;24.41;45.59
22241;BME280;11289;52.524;13.694;2022-08-30T11:06:23;101638.19;;;24.55;44.38
22241;BME280;11289;52.524;13.694;2022-08-30T11:09:24;101631.25;;;24.56;45.09
22241;BME280;11289;52.524;13.694;2022-08-30T11:14:43;101628.81;;;24.43;45.45
22241;BME280;11289;52.524;13.694;2022-08-30T11:17:41;101642.28;;;24.68;45.54
22241;BME280;11289;52.524;13.694;2022-08-30T11:20:23;101630.88;;;24.54;43.72
22241;BME280;11289;52.524;13.694;2022-08-30T11:31:31;101630.72;;;24.03;45.43
22241;BME280;11289;52.524;13.694;2022-08-30T11:33:57;101621.97;;;23.49;46.31
22241;BME280;11289;52.524;13.694;2022-08-30T11:39:41;101622.44;;;23.65;47.01
22241;BME280;11289;52.524;13.694;2022-08-30T11:53:32;101612.19;;;24.52;44.73
22241;BME280;11289;52.524;13.694;2022-08-30T11:59:01;101604.16;;;24.62;44.27
22241;BME280;11289;52.524;13.694;2022-08-30T12:01:46;101598.00;;;24.38;43.05
22241;BME280;11289;52.524;13.694;2022-08-30T12:12:11;101603.22;;;24.11;43.99
22241;BME280;11289;52.524;13.694;2022-08-30T12:14:56;101597.56;;;24.14;43.72
22241;BME280;11289;52.524;13.694;2022-08-30T12:17:29;101595.97;;;24.24;44.11
22241;BME280;11289;52.524;13.694;2022-08-30T12:20:26;101598.34;;;24.11;43.07
22241;BME280;11289;52.524;13.694;2022-08-30T12:22:54;101595.09;;;24.02;44.17
22241;BME280;11289;52.524;13.694;2022-08-30T12:25:30;101585.81;;;24.12;44.69
22241;BME280;11289;52.524;13.694;2022-08-30T12:28:28;101585.03;;;24.23;44.79
22241;BME280;11289;52.524;13.694;2022-08-30T12:30:53;101590.72;;;24.41;44.68
22241;BME280;11289;52.524;13.694;2022-08-30T12:33:27;101587.88;;;24.48;44.41
22241;BME280;11289;52.524;13.694;2022-08-30T12:35:56;101577.75;;;24.43;42.96
22241;BME280;11289;52.524;13.694;2022-08-30T12:38:23;101568.00;;;24.33;44.22
22241;BME280;11289;52.524;13.694;2022-08-30T12:40:55;101578.56;;;24.47;44.08
22241;BME280;11289;52.524;13.694;2022-08-30T12:43:34;101572.47;;;24.38;44.96
22241;BME280;11289;52.524;13.694;2022-08-30T12:46:04;101564.38;;;24.47;44.58
22241;BME280;11289;52.524;13.694;2022-08-30T12:48:34;101561.13;;;24.45;45.26
22241;BME280;11289;52.524;13.694;2022-08-30T12:51:01;101567.22;;;24.55;45.27
22241;BME280;11289;52.524;13.694;2022-08-30T12:53:31;101571.28;;;24.72;44.35
22241;BME280;11289;52.524;13.694;2022-08-30T12:56:07;101567.63;;;24.78;43.62
22241;BME280;11289;52.524;13.694;2022-08-30T13:01:26;101542.50;;;24.59;44.29
22241;BME280;11289;52.524;13.694;2022-08-30T13:04:01;101562.75;;;24.64;43.03
22241;BME280;11289;52.524;13.694;2022-08-30T13:09:06;101552.19;;;24.47;43.51
22241;BME280;11289;52.524;13.694;2022-08-30T13:11:32;101542.91;;;24.50;43.96
22241;BME280;11289;52.524;13.694;2022-08-30T13:14:26;101546.94;;;24.56;44.79
22241;BME280;11289;52.524;13.694;2022-08-30T13:17:05;101549.34;;;24.14;44.15
22241;BME280;11289;52.524;13.694;2022-08-30T13:19:35;101556.63;;;24.15;45.45
22241;BME280;11289;52.524;13.694;2022-08-30T13:22:01;101543.28;;;24.27;45.12
22241;BME280;11289;52.524;13.694;2022-08-30T13:24:28;101535.59;;;24.34;45.05
22241;BME280;11289;52.524;13.694;2022-08-30T13:26:55;101540.84;;;24.50;44.62
22241;BME280;11289;52.524;13.694;2022-08-30T13:29:25;101544.06;;;24.31;44.70
22241;BME280;11289;52.524;13.694;2022-08-30T13:31:52;101542.06;;;24.42;44.45
22241;BME280;11289;52.524;13.694;2022-08-30T13:34:17;101542.06;;;24.31;45.38
22241;BME280;11289;52.524;13.694;2022-08-30T13:36:49;101540.84;;;24.29;45.88
22241;BME280;11289;52.524;13.694;2022-08-30T13:39:14;101532.72;;;24.31;46.19
22241;BME280;11289;52.524;13.694;2022-08-30T13:41:41;101538.38;;;24.16;47.92
22241;BME280;11289;52.524;13.694;2022-08-30T13:44:06;101536.78;;;24.15;49.08
22241;BME280;11289;52.524;13.694;2022-08-30T13:46:32;101541.59;;;23.97;50.09
22241;BME280;11289;52.524;13.694;2022-08-30T13:49:02;101537.00;;;23.56;51.55
22241;BME280;11289;52.524;13.694;2022-08-30T13:51:28;101529.22;;;23.42;52.94
22241;BME280;11289;52.524;13.694;2022-08-30T13:53:54;101531.31;;;23.53;52.60
22241;BME280;11289;52.524;13.694;2022-08-30T13:56:19;101546.25;;;23.50;52.23
22241;BME280;11289;52.524;13.694;2022-08-30T13:58:45;101536.56;;;23.51;52.63
22241;BME280;11289;52.524;13.694;2022-08-30T14:01:10;101532.97;;;23.68;52.21
22241;BME280;11289;52.524;13.694;2022-08-30T14:03:36;101538.75;;;23.90;52.00
22241;BME280;11289;52.524;13.694;2022-08-30T14:06:01;101547.34;;;24.26;51.37
22241;BME280;11289;52.524;13.694;2022-08-30T14:08:28;101555.03;;;24.18;50.72
22241;BME280;11289;52.524;13.694;2022-08-30T14:11:12;101546.72;;;23.62;51.79
22241;BME280;11289;52.524;13.694;2022-08-30T14:13:39;101544.31;;;23.64;51.78
22241;BME280;11289;52.524;13.694;2022-08-30T14:16:10;101545.16;;;23.83;52.11
22241;BME280;11289;52.524;13.694;2022-08-30T14:18:36;101545.13;;;23.65;51.97
22241;BME280;11289;52.524;13.694;2022-08-30T14:21:20;101551.25;;;23.81;51.81
22241;BME280;11289;52.524;13.694;2022-08-30T14:23:54;101541.50;;;23.72;51.04